sensor_id;sensor_type;location;lat;lon;timestamp;temperature;humidity
37788;DHT22;23627;53.302;-6.362;2023-08-07T00:01:27;13.30;99.90
37788;DHT22;23627;53.302;-6.362;2023-08-07T00:03:52;13.30;99.90
37788;DHT22;23627;53.302;-6.362;2023-08-07T00:06:18;13.30;99.90
37788;DHT22;23627;53.302;-6.362;2023-08-07T00:08:44;13.40;99.90
37788;DHT22;23627;53.302;-6.362;2023-08-07T00:11:10;13.40;99.90
37788;DHT22;23627;53.302;-6.362;2023-08-07T00:13:36;13.30;99.90
37788;DHT22;23627;53.302;-6.362;2023-08-07T00:16:03;13.30;99.90
37788;DHT22;23627;53.302;-6.362;2023-08-07T00:18:29;13.40;99.90
37788;DHT22;23627;53.302;-6.362;2023-08-07T00:20:55;13.30;99.90
37788;DHT22;23627;53.302;-6.362;2023-08-07T00:23:21;13.30;99.90
37788;DHT22;23627;53.302;-6.362;2023-08-07T00:25:47;13.20;99.90
37788;DHT22;23627;53.302;-6.362;2023-08-07T00:28:12;13.10;99.90
37788;DHT22;23627;53.302;-6.362;2023-08-07T00:30:38;13.20;99.90
37788;DHT22;23627;53.302;-6.362;2023-08-07T00:33:04;13.20;99.90
37788;DHT22;23627;53.302;-6.362;2023-08-07T00:35:32;13.20;99.90
37788;DHT22;23627;53.302;-6.362;2023-08-07T00:37:58;13.00;99.90
37788;DHT22;23627;53.302;-6.362;2023-08-07T00:40:24;12.90;99.90
37788;DHT22;23627;53.302;-6.362;2023-08-07T00:42:49;12.90;99.90
37788;DHT22;23627;53.302;-6.362;2023-08-07T00:45:15;12.90;99.90
37788;DHT22;23627;53.302;-6.362;2023-08-07T00:47:43;12.80;99.90
37788;DHT22;23627;53.302;-6.362;2023-08-07T00:50:09;12.80;99.90
37788;DHT22;23627;53.302;-6.362;2023-08-07T00:52:36;12.80;99.90
37788;DHT22;23627;53.302;-6.362;2023-08-07T00:55:02;12.70;99.90
37788;DHT22;23627;53.302;-6.362;2023-08-07T00:57:29;12.70;99.90
37788;DHT22;23627;53.302;-6.362;2023-08-07T00:59:59;12.70;99.90
37788;DHT22;23627;53.302;-6.362;2023-08-07T01:02:24;12.70;99.90
37788;DHT22;23627;53.302;-6.362;2023-08-07T01:04:50;12.70;99.90
37788;DHT22;23627;53.302;-6.362;2023-08-07T01:07:16;12.60;99.90
37788;DHT22;23627;53.302;-6.362;2023-08-07T01:09:42;12.70;99.90
37788;DHT22;23627;53.302;-6.362;2023-08-07T01:12:19;12.70;99.90
37788;DHT22;23627;53.302;-6.362;2023-08-07T01:15:03;12.60;99.90
37788;DHT22;23627;53.302;-6.362;2023-08-07T01:17:32;12.60;99.90
37788;DHT22;23627;53.302;-6.362;2023-08-07T01:20:00;12.60;99.90
37788;DHT22;23627;53.302;-6.362;2023-08-07T01:22:26;12.50;99.90
37788;DHT22;23627;53.302;-6.362;2023-08-07T01:24:51;12.50;99.90
37788;DHT22;23627;53.302;-6.362;2023-08-07T01:35:06;12.40;99.90
37788;DHT22;23627;53.302;-6.362;2023-08-07T01:37:35;12.40;99.90
37788;DHT22;23627;53.302;-6.362;2023-08-07T01:40:02;12.40;99.90
37788;DHT22;23627;53.302;-6.362;2023-08-07T01:42:29;12.30;99.90
37788;DHT22;23627;53.302;-6.362;2023-08-07T01:44:57;12.20;99.90
37788;DHT22;23627;53.302;-6.362;2023-08-07T01:47:23;12.20;99.90
37788;DHT22;23627;53.302;-6.362;2023-08-07T01:49:49;12.10;99.90
37788;DHT22;23627;53.302;-6.362;2023-08-07T01:52:15;12.10;99.90
37788;DHT22;23627;53.302;-6.362;2023-08-07T01:54:40;12.00;99.90
37788;DHT22;23627;53.302;-6.362;2023-08-07T01:57:06;12.00;99.90
37788;DHT22;23627;53.302;-6.362;2023-08-07T01:59:32;12.00;99.90
37788;DHT22;23627;53.302;-6.362;2023-08-07T02:01:58;11.90;99.90
37788;DHT22;23627;53.302;-6.362;2023-08-07T02:36:33;11.70;99.90
37788;DHT22;23627;53.302;-6.362;2023-08-07T03:20:25;11.40;99.90
37788;DHT22;23627;53.302;-6.362;2023-08-07T03:38:20;11.30;99.90
37788;DHT22;23627;53.302;-6.362;2023-08-07T03:44:06;11.30;99.90
37788;DHT22;23627;53.302;-6.362;2023-08-07T03:47:26;11.30;99.90
37788;DHT22;23627;53.302;-6.362;2023-08-07T03:52:39;11.30;99.90
37788;DHT22;23627;53.302;-6.362;2023-08-07T03:55:12;11.30;99.90
37788;DHT22;23627;53.302;-6.362;2023-08-07T03:57:47;11.30;99.90
37788;DHT22;23627;53.302;-6.362;2023-08-07T04:00:15;11.30;99.90
37788;DHT22;23627;53.302;-6.362;2023-08-07T04:02:46;11.40;99.90
37788;DHT22;23627;53.302;-6.362;2023-08-07T04:19:57;11.50;99.90
37788;DHT22;23627;53.302;-6.362;2023-08-07T04:22:26;11.50;99.90
37788;DHT22;23627;53.302;-6.362;2023-08-07T04:24:54;11.60;99.90
37788;DHT22;23627;53.302;-6.362;2023-08-07T04:27:44;11.50;99.90
37788;DHT22;23627;53.302;-6.362;2023-08-07T04:33:23;11.70;99.90
37788;DHT22;23627;53.302;-6.362;2023-08-07T04:39:12;11.70;99.90
37788;DHT22;23627;53.302;-6.362;2023-08-07T04:41:42;11.60;99.90
37788;DHT22;23627;53.302;-6.362;2023-08-07T04:44:34;11.60;99.90
37788;DHT22;23627;53.302;-6.362;2023-08-07T05:45:58;11.90;99.90
37788;DHT22;23627;53.302;-6.362;2023-08-07T05:48:30;12.00;99.90
37788;DHT22;23627;53.302;-6.362;2023-08-07T05:50:56;12.00;99.90
37788;DHT22;23627;53.302;-6.362;2023-08-07T05:53:23;12.10;99.90
37788;DHT22;23627;53.302;-6.362;2023-08-07T05:55:49;12.10;99.90
37788;DHT22;23627;53.302;-6.362;2023-08-07T05:58:17;12.10;99.90
37788;DHT22;23627;53.302;-6.362;2023-08-07T06:00:45;12.20;99.90
37788;DHT22;23627;53.302;-6.362;2023-08-07T06:03:11;12.20;99.90
37788;DHT22;23627;53.302;-6.362;2023-08-07T06:05:37;12.20;99.90
37788;DHT22;23627;53.302;-6.362;2023-08-07T06:08:03;12.30;99.90
37788;DHT22;23627;53.302;-6.362;2023-08-07T06:10:31;12.30;99.90
37788;DHT22;23627;53.302;-6.362;2023-08-07T06:12:58;12.40;99.90
37788;DHT22;23627;53.302;-6.362;2023-08-07T06:15:24;12.40;99.90
37788;DHT22;23627;53.302;-6.362;2023-08-07T06:17:51;12.50;99.90
37788;DHT22;23627;53.302;-6.362;2023-08-07T06:20:17;12.50;99.90
37788;DHT22;23627;53.302;-6.362;2023-08-07T06:22:44;12.60;99.90
37788;DHT22;23627;53.302;-6.362;2023-08-07T06:25:10;12.60;99.90
37788;DHT22;23627;53.302;-6.362;2023-08-07T06:27:36;12.60;99.90
37788;DHT22;23627;53.302;-6.362;2023-08-07T06:30:05;12.60;99.90
37788;DHT22;23627;53.302;-6.362;2023-08-07T06:32:32;12.60;99.90
37788;DHT22;23627;53.302;-6.362;2023-08-07T06:34:59;12.60;99.90
37788;DHT22;23627;53.302;-6.362;2023-08-07T06:37:29;12.60;99.90
37788;DHT22;23627;53.302;-6.362;2023-08-07T06:39:58;12.70;99.90
37788;DHT22;23627;53.302;-6.362;2023-08-07T06:42:26;12.70;99.90
37788;DHT22;23627;53.302;-6.362;2023-08-07T06:44:53;12.70;99.90
37788;DHT22;23627;53.302;-6.362;2023-08-07T06:47:19;12.80;99.90
37788;DHT22;23627;53.302;-6.362;2023-08-07T06:49:47;12.80;99.90
37788;DHT22;23627;53.302;-6.362;2023-08-07T06:52:18;12.90;99.90
37788;DHT22;23627;53.302;-6.362;2023-08-07T06:54:45;12.90;99.90
37788;DHT22;23627;53.302;-6.362;2023-08-07T06:57:11;12.90;99.90
37788;DHT22;23627;53.302;-6.362;2023-08-07T06:59:43;13.00;99.90
37788;DHT22;23627;53.302;-6.362;2023-08-07T07:02:31;13.00;99.90
37788;DHT22;23627;53.302;-6.362;2023-08-07T07:05:01;13.10;99.90
37788;DHT22;23627;53.302;-6.362;2023-08-07T07:07:35;13.10;99.90
37788;DHT22;23627;53.302;-6.362;2023-08-07T07:10:20;13.10;99.90
37788;DHT22;23627;53.302;-6.362;2023-08-07T07:12:48;13.20;99.90
37788;DHT22;23627;53.302;-6.362;2023-08-07T07:15:36;13.30;99.90
37788;DHT22;23627;53.302;-6.362;2023-08-07T07:18:03;13.30;99.90
37788;DHT22;23627;53.302;-6.362;2023-08-07T07:20:41;13.40;99.90
37788;DHT22;23627;53.302;-6.362;2023-08-07T07:23:09;13.40;99.90
37788;DHT22;23627;53.302;-6.362;2023-08-07T07:25:40;13.40;99.90
37788;DHT22;23627;53.302;-6.362;2023-08-07T07:28:54;13.50;99.90
37788;DHT22;23627;53.302;-6.362;2023-08-07T07:39:59;13.90;99.90
37788;DHT22;23627;53.302;-6.362;2023-08-07T07:42:25;14.00;99.90
37788;DHT22;23627;53.302;-6.362;2023-08-07T07:44:58;14.10;99.90
37788;DHT22;23627;53.302;-6.362;2023-08-07T07:47:45;14.20;99.90
37788;DHT22;23627;53.302;-6.362;2023-08-07T08:00:54;14.50;99.90
37788;DHT22;23627;53.302;-6.362;2023-08-07T09:40:32;16.70;99.90
37788;DHT22;23627;53.302;-6.362;2023-08-07T09:43:00;16.70;99.90
37788;DHT22;23627;53.302;-6.362;2023-08-07T09:45:27;16.60;99.90
37788;DHT22;23627;53.302;-6.362;2023-08-07T09:48:01;16.70;99.90
37788;DHT22;23627;53.302;-6.362;2023-08-07T09:50:28;16.70;99.90
37788;DHT22;23627;53.302;-6.362;2023-08-07T09:52:56;16.80;99.90
37788;DHT22;23627;53.302;-6.362;2023-08-07T09:55:25;16.90;99.90
37788;DHT22;23627;53.302;-6.362;2023-08-07T09:57:51;17.00;99.90
37788;DHT22;23627;53.302;-6.362;2023-08-07T10:00:23;17.00;99.90
37788;DHT22;23627;53.302;-6.362;2023-08-07T10:02:50;17.00;99.90
37788;DHT22;23627;53.302;-6.362;2023-08-07T10:05:18;17.10;99.90
37788;DHT22;23627;53.302;-6.362;2023-08-07T10:08:07;17.10;99.90
37788;DHT22;23627;53.302;-6.362;2023-08-07T10:10:34;17.00;99.90
37788;DHT22;23627;53.302;-6.362;2023-08-07T10:13:01;17.20;99.90
37788;DHT22;23627;53.302;-6.362;2023-08-07T10:15:28;17.30;99.90
37788;DHT22;23627;53.302;-6.362;2023-08-07T10:17:54;17.40;99.90
37788;DHT22;23627;53.302;-6.362;2023-08-07T10:20:21;17.40;99.90
37788;DHT22;23627;53.302;-6.362;2023-08-07T10:22:49;17.60;99.90
37788;DHT22;23627;53.302;-6.362;2023-08-07T10:25:22;17.70;99.90
37788;DHT22;23627;53.302;-6.362;2023-08-07T10:27:57;17.60;99.90
37788;DHT22;23627;53.302;-6.362;2023-08-07T10:30:24;17.60;99.90
37788;DHT22;23627;53.302;-6.362;2023-08-07T10:32:51;17.60;99.90
37788;DHT22;23627;53.302;-6.362;2023-08-07T10:35:34;17.80;99.90
37788;DHT22;23627;53.302;-6.362;2023-08-07T10:38:07;17.80;99.90
37788;DHT22;23627;53.302;-6.362;2023-08-07T10:41:03;17.60;99.90
37788;DHT22;23627;53.302;-6.362;2023-08-07T10:43:35;17.30;99.90
37788;DHT22;23627;53.302;-6.362;2023-08-07T10:46:22;17.10;99.90
37788;DHT22;23627;53.302;-6.362;2023-08-07T10:49:00;17.00;99.90
37788;DHT22;23627;53.302;-6.362;2023-08-07T10:51:29;16.70;99.90
37788;DHT22;23627;53.302;-6.362;2023-08-07T10:54:01;16.80;99.90
37788;DHT22;23627;53.302;-6.362;2023-08-07T10:56:32;16.80;99.90
37788;DHT22;23627;53.302;-6.362;2023-08-07T10:59:10;16.80;99.90
37788;DHT22;23627;53.302;-6.362;2023-08-07T11:01:43;16.80;99.90
37788;DHT22;23627;53.302;-6.362;2023-08-07T11:04:11;16.70;99.90
37788;DHT22;23627;53.302;-6.362;2023-08-07T11:06:38;16.60;99.90
37788;DHT22;23627;53.302;-6.362;2023-08-07T11:09:06;16.60;99.90
37788;DHT22;23627;53.302;-6.362;2023-08-07T11:11:46;16.50;99.90
37788;DHT22;23627;53.302;-6.362;2023-08-07T11:14:15;16.60;99.90
37788;DHT22;23627;53.302;-6.362;2023-08-07T11:16:42;16.70;99.90
37788;DHT22;23627;53.302;-6.362;2023-08-07T11:19:08;16.80;99.90
37788;DHT22;23627;53.302;-6.362;2023-08-07T11:21:34;16.80;99.90
37788;DHT22;23627;53.302;-6.362;2023-08-07T11:24:01;16.90;99.90
37788;DHT22;23627;53.302;-6.362;2023-08-07T11:26:26;16.80;99.90
37788;DHT22;23627;53.302;-6.362;2023-08-07T11:28:54;16.80;99.90
37788;DHT22;23627;53.302;-6.362;2023-08-07T11:31:20;16.80;99.90
37788;DHT22;23627;53.302;-6.362;2023-08-07T11:33:50;16.80;99.90
37788;DHT22;23627;53.302;-6.362;2023-08-07T11:36:15;16.80;99.90
37788;DHT22;23627;53.302;-6.362;2023-08-07T11:38:43;16.70;99.90
37788;DHT22;23627;53.302;-6.362;2023-08-07T11:41:12;16.60;99.90
37788;DHT22;23627;53.302;-6.362;2023-08-07T11:43:40;16.50;99.90
37788;DHT22;23627;53.302;-6.362;2023-08-07T11:46:07;16.40;99.90
37788;DHT22;23627;53.302;-6.362;2023-08-07T11:48:35;16.40;99.90
37788;DHT22;23627;53.302;-6.362;2023-08-07T11:51:02;16.50;99.90
37788;DHT22;23627;53.302;-6.362;2023-08-07T11:53:32;16.60;99.90
37788;DHT22;23627;53.302;-6.362;2023-08-07T11:56:01;16.70;99.90
37788;DHT22;23627;53.302;-6.362;2023-08-07T11:58:37;16.90;99.90
37788;DHT22;23627;53.302;-6.362;2023-08-07T12:01:05;17.10;99.90
37788;DHT22;23627;53.302;-6.362;2023-08-07T12:03:33;17.20;99.90
37788;DHT22;23627;53.302;-6.362;2023-08-07T12:06:03;17.30;99.90
37788;DHT22;23627;53.302;-6.362;2023-08-07T12:08:39;17.30;99.90
37788;DHT22;23627;53.302;-6.362;2023-08-07T12:11:12;17.40;99.90
37788;DHT22;23627;53.302;-6.362;2023-08-07T12:13:39;17.40;99.90
37788;DHT22;23627;53.302;-6.362;2023-08-07T12:16:09;17.40;99.90
37788;DHT22;23627;53.302;-6.362;2023-08-07T12:18:36;17.50;99.90
37788;DHT22;23627;53.302;-6.362;2023-08-07T12:21:05;17.70;99.90
37788;DHT22;23627;53.302;-6.362;2023-08-07T12:23:36;18.00;99.90
37788;DHT22;23627;53.302;-6.362;2023-08-07T12:26:04;18.00;99.90
37788;DHT22;23627;53.302;-6.362;2023-08-07T12:28:34;18.00;99.90
37788;DHT22;23627;53.302;-6.362;2023-08-07T12:31:01;18.10;99.90
37788;DHT22;23627;53.302;-6.362;2023-08-07T12:33:28;18.10;99.90
37788;DHT22;23627;53.302;-6.362;2023-08-07T12:35:54;18.20;99.90
37788;DHT22;23627;53.302;-6.362;2023-08-07T12:38:20;18.00;99.90
37788;DHT22;23627;53.302;-6.362;2023-08-07T12:40:46;18.00;99.90
37788;DHT22;23627;53.302;-6.362;2023-08-07T12:43:12;18.10;99.90
37788;DHT22;23627;53.302;-6.362;2023-08-07T12:45:38;18.20;99.90
37788;DHT22;23627;53.302;-6.362;2023-08-07T12:48:04;18.10;99.90
37788;DHT22;23627;53.302;-6.362;2023-08-07T12:50:30;18.00;99.90
37788;DHT22;23627;53.302;-6.362;2023-08-07T12:52:56;18.00;99.90
37788;DHT22;23627;53.302;-6.362;2023-08-07T12:55:22;18.00;99.90
37788;DHT22;23627;53.302;-6.362;2023-08-07T12:57:48;18.00;99.90
37788;DHT22;23627;53.302;-6.362;2023-08-07T13:00:15;18.20;99.90
37788;DHT22;23627;53.302;-6.362;2023-08-07T13:02:42;18.30;99.90
37788;DHT22;23627;53.302;-6.362;2023-08-07T13:05:09;18.30;99.90
37788;DHT22;23627;53.302;-6.362;2023-08-07T13:07:36;18.40;99.90
37788;DHT22;23627;53.302;-6.362;2023-08-07T13:10:04;18.40;99.90
37788;DHT22;23627;53.302;-6.362;2023-08-07T13:12:30;18.40;99.90
37788;DHT22;23627;53.302;-6.362;2023-08-07T13:15:00;18.50;99.90
37788;DHT22;23627;53.302;-6.362;2023-08-07T13:17:25;18.60;99.90
37788;DHT22;23627;53.302;-6.362;2023-08-07T13:19:51;18.70;99.90
37788;DHT22;23627;53.302;-6.362;2023-08-07T13:22:17;18.70;99.90
37788;DHT22;23627;53.302;-6.362;2023-08-07T13:24:43;18.40;99.90
37788;DHT22;23627;53.302;-6.362;2023-08-07T13:27:09;18.30;99.90
37788;DHT22;23627;53.302;-6.362;2023-08-07T13:29:34;18.20;99.90
37788;DHT22;23627;53.302;-6.362;2023-08-07T13:32:01;18.20;99.90
37788;DHT22;23627;53.302;-6.362;2023-08-07T13:34:29;18.30;99.90
37788;DHT22;23627;53.302;-6.362;2023-08-07T13:36:55;18.30;99.90
37788;DHT22;23627;53.302;-6.362;2023-08-07T13:39:20;18.10;99.90
37788;DHT22;23627;53.302;-6.362;2023-08-07T13:41:46;18.10;99.90
37788;DHT22;23627;53.302;-6.362;2023-08-07T13:44:12;18.20;99.90
37788;DHT22;23627;53.302;-6.362;2023-08-07T13:46:38;18.10;99.90
37788;DHT22;23627;53.302;-6.362;2023-08-07T13:49:04;18.20;99.90
37788;DHT22;23627;53.302;-6.362;2023-08-07T13:51:29;18.20;99.90
37788;DHT22;23627;53.302;-6.362;2023-08-07T13:53:55;18.00;99.90
37788;DHT22;23627;53.302;-6.362;2023-08-07T13:56:21;18.00;99.90
37788;DHT22;23627;53.302;-6.362;2023-08-07T13:58:47;18.20;99.90
37788;DHT22;23627;53.302;-6.362;2023-08-07T14:01:12;18.10;99.90
37788;DHT22;23627;53.302;-6.362;2023-08-07T14:03:38;18.10;99.90
37788;DHT22;23627;53.302;-6.362;2023-08-07T14:06:04;17.90;99.90
37788;DHT22;23627;53.302;-6.362;2023-08-07T14:08:30;17.90;99.90
37788;DHT22;23627;53.302;-6.362;2023-08-07T14:10:58;18.00;99.90
37788;DHT22;23627;53.302;-6.362;2023-08-07T14:13:24;18.10;99.90
37788;DHT22;23627;53.302;-6.362;2023-08-07T14:15:49;18.30;99.90
37788;DHT22;23627;53.302;-6.362;2023-08-07T14:18:15;18.50;99.90
37788;DHT22;23627;53.302;-6.362;2023-08-07T14:20:41;18.60;99.90
37788;DHT22;23627;53.302;-6.362;2023-08-07T14:23:07;18.70;99.90
37788;DHT22;23627;53.302;-6.362;2023-08-07T14:25:32;18.50;99.90
37788;DHT22;23627;53.302;-6.362;2023-08-07T14:27:58;18.30;99.90
37788;DHT22;23627;53.302;-6.362;2023-08-07T14:30:24;18.10;99.90
37788;DHT22;23627;53.302;-6.362;2023-08-07T14:32:50;18.10;99.90
37788;DHT22;23627;53.302;-6.362;2023-08-07T14:35:16;18.10;99.90
37788;DHT22;23627;53.302;-6.362;2023-08-07T14:37:42;18.20;99.90
37788;DHT22;23627;53.302;-6.362;2023-08-07T14:40:08;18.30;99.90
37788;DHT22;23627;53.302;-6.362;2023-08-07T14:42:34;18.40;99.90
37788;DHT22;23627;53.302;-6.362;2023-08-07T14:45:00;18.50;99.90
37788;DHT22;23627;53.302;-6.362;2023-08-07T14:47:25;18.50;99.90
37788;DHT22;23627;53.302;-6.362;2023-08-07T14:49:51;18.30;99.90
37788;DHT22;23627;53.302;-6.362;2023-08-07T14:52:17;18.20;99.90
37788;DHT22;23627;53.302;-6.362;2023-08-07T14:54:43;18.10;99.90
37788;DHT22;23627;53.302;-6.362;2023-08-07T14:57:09;17.90;99.90
37788;DHT22;23627;53.302;-6.362;2023-08-07T14:59:35;17.60;99.90
37788;DHT22;23627;53.302;-6.362;2023-08-07T15:02:01;17.60;99.90
37788;DHT22;23627;53.302;-6.362;2023-08-07T15:04:27;17.60;99.90
37788;DHT22;23627;53.302;-6.362;2023-08-07T15:06:53;17.60;99.90
37788;DHT22;23627;53.302;-6.362;2023-08-07T15:09:18;17.60;99.90
37788;DHT22;23627;53.302;-6.362;2023-08-07T15:11:48;17.80;99.90
37788;DHT22;23627;53.302;-6.362;2023-08-07T15:14:14;17.60;99.90
37788;DHT22;23627;53.302;-6.362;2023-08-07T15:16:40;17.50;99.90
37788;DHT22;23627;53.302;-6.362;2023-08-07T15:19:07;17.60;99.90
37788;DHT22;23627;53.302;-6.362;2023-08-07T15:21:33;17.70;99.90
37788;DHT22;23627;53.302;-6.362;2023-08-07T15:23:58;17.70;99.90
37788;DHT22;23627;53.302;-6.362;2023-08-07T15:26:24;17.90;99.90
37788;DHT22;23627;53.302;-6.362;2023-08-07T15:28:50;17.90;99.90
37788;DHT22;23627;53.302;-6.362;2023-08-07T15:31:16;18.00;99.90
37788;DHT22;23627;53.302;-6.362;2023-08-07T15:33:41;17.90;99.90
37788;DHT22;23627;53.302;-6.362;2023-08-07T15:36:10;17.90;99.90
37788;DHT22;23627;53.302;-6.362;2023-08-07T15:38:35;18.00;99.90
37788;DHT22;23627;53.302;-6.362;2023-08-07T15:41:04;18.20;99.90
37788;DHT22;23627;53.302;-6.362;2023-08-07T15:43:30;18.60;99.90
37788;DHT22;23627;53.302;-6.362;2023-08-07T15:45:55;18.70;99.90
37788;DHT22;23627;53.302;-6.362;2023-08-07T15:48:21;18.80;99.90
37788;DHT22;23627;53.302;-6.362;2023-08-07T15:50:48;18.80;99.90
37788;DHT22;23627;53.302;-6.362;2023-08-07T15:53:14;18.70;99.90
37788;DHT22;23627;53.302;-6.362;2023-08-07T15:55:40;18.80;99.90
37788;DHT22;23627;53.302;-6.362;2023-08-07T15:58:06;18.90;99.90
37788;DHT22;23627;53.302;-6.362;2023-08-07T16:00:33;18.90;99.90
37788;DHT22;23627;53.302;-6.362;2023-08-07T16:03:04;18.80;99.90
37788;DHT22;23627;53.302;-6.362;2023-08-07T16:05:39;18.60;99.90
37788;DHT22;23627;53.302;-6.362;2023-08-07T16:08:05;18.50;99.90
37788;DHT22;23627;53.302;-6.362;2023-08-07T16:10:32;18.50;99.90
37788;DHT22;23627;53.302;-6.362;2023-08-07T16:12:58;18.30;99.90
37788;DHT22;23627;53.302;-6.362;2023-08-07T16:15:25;18.30;99.90
37788;DHT22;23627;53.302;-6.362;2023-08-07T16:17:51;18.30;99.90
37788;DHT22;23627;53.302;-6.362;2023-08-07T16:20:20;18.50;99.90
37788;DHT22;23627;53.302;-6.362;2023-08-07T16:22:46;18.60;99.90
37788;DHT22;23627;53.302;-6.362;2023-08-07T16:25:12;18.80;99.90
37788;DHT22;23627;53.302;-6.362;2023-08-07T16:27:39;18.80;99.90
37788;DHT22;23627;53.302;-6.362;2023-08-07T16:30:06;18.90;99.90
37788;DHT22;23627;53.302;-6.362;2023-08-07T16:32:33;18.90;99.90
37788;DHT22;23627;53.302;-6.362;2023-08-07T16:35:00;18.90;99.90
37788;DHT22;23627;53.302;-6.362;2023-08-07T16:37:30;18.80;99.90
37788;DHT22;23627;53.302;-6.362;2023-08-07T16:39:57;18.60;99.90
37788;DHT22;23627;53.302;-6.362;2023-08-07T16:42:23;18.50;99.90
37788;DHT22;23627;53.302;-6.362;2023-08-07T16:44:49;18.40;99.90
37788;DHT22;23627;53.302;-6.362;2023-08-07T16:47:15;18.20;99.90
37788;DHT22;23627;53.302;-6.362;2023-08-07T16:49:41;18.20;99.90
37788;DHT22;23627;53.302;-6.362;2023-08-07T16:52:07;18.00;99.90
37788;DHT22;23627;53.302;-6.362;2023-08-07T16:54:34;18.00;99.90
37788;DHT22;23627;53.302;-6.362;2023-08-07T16:57:00;18.10;99.90
37788;DHT22;23627;53.302;-6.362;2023-08-07T16:59:26;18.10;99.90
37788;DHT22;23627;53.302;-6.362;2023-08-07T17:01:52;18.10;99.90
37788;DHT22;23627;53.302;-6.362;2023-08-07T17:04:18;18.20;99.90
37788;DHT22;23627;53.302;-6.362;2023-08-07T17:06:44;18.30;99.90
37788;DHT22;23627;53.302;-6.362;2023-08-07T17:09:10;18.40;99.90
37788;DHT22;23627;53.302;-6.362;2023-08-07T17:11:36;18.40;99.90
37788;DHT22;23627;53.302;-6.362;2023-08-07T17:14:02;18.40;99.90
37788;DHT22;23627;53.302;-6.362;2023-08-07T17:16:27;18.40;99.90
37788;DHT22;23627;53.302;-6.362;2023-08-07T17:18:53;18.40;99.90
37788;DHT22;23627;53.302;-6.362;2023-08-07T17:21:23;18.40;99.90
37788;DHT22;23627;53.302;-6.362;2023-08-07T17:23:48;18.50;99.90
37788;DHT22;23627;53.302;-6.362;2023-08-07T17:26:15;18.40;99.90
37788;DHT22;23627;53.302;-6.362;2023-08-07T17:28:41;18.30;99.90
37788;DHT22;23627;53.302;-6.362;2023-08-07T17:31:07;18.30;99.90
37788;DHT22;23627;53.302;-6.362;2023-08-07T17:33:33;18.40;99.90
37788;DHT22;23627;53.302;-6.362;2023-08-07T17:35:59;18.60;99.90
37788;DHT22;23627;53.302;-6.362;2023-08-07T17:38:25;18.70;99.90
37788;DHT22;23627;53.302;-6.362;2023-08-07T17:40:51;18.70;99.90
37788;DHT22;23627;53.302;-6.362;2023-08-07T17:43:19;18.80;99.90
37788;DHT22;23627;53.302;-6.362;2023-08-07T17:45:45;18.80;99.90
37788;DHT22;23627;53.302;-6.362;2023-08-07T17:48:11;18.80;99.90
37788;DHT22;23627;53.302;-6.362;2023-08-07T17:50:37;18.90;99.90
37788;DHT22;23627;53.302;-6.362;2023-08-07T17:53:03;18.90;99.90
37788;DHT22;23627;53.302;-6.362;2023-08-07T17:55:29;18.70;99.90
37788;DHT22;23627;53.302;-6.362;2023-08-07T17:57:56;18.60;99.90
37788;DHT22;23627;53.302;-6.362;2023-08-07T18:00:22;18.40;99.90
37788;DHT22;23627;53.302;-6.362;2023-08-07T18:02:48;18.20;99.90
37788;DHT22;23627;53.302;-6.362;2023-08-07T18:05:15;18.10;99.90
37788;DHT22;23627;53.302;-6.362;2023-08-07T18:07:41;17.90;99.90
37788;DHT22;23627;53.302;-6.362;2023-08-07T18:10:08;17.90;99.90
37788;DHT22;23627;53.302;-6.362;2023-08-07T18:12:34;17.90;99.90
37788;DHT22;23627;53.302;-6.362;2023-08-07T18:15:00;18.00;99.90
37788;DHT22;23627;53.302;-6.362;2023-08-07T18:17:27;18.10;99.90
37788;DHT22;23627;53.302;-6.362;2023-08-07T18:19:55;18.00;99.90
37788;DHT22;23627;53.302;-6.362;2023-08-07T18:22:23;18.10;99.90
37788;DHT22;23627;53.302;-6.362;2023-08-07T18:24:50;18.00;99.90
37788;DHT22;23627;53.302;-6.362;2023-08-07T18:27:16;18.00;99.90
37788;DHT22;23627;53.302;-6.362;2023-08-07T18:29:44;18.00;99.90
37788;DHT22;23627;53.302;-6.362;2023-08-07T18:32:17;18.00;99.90
37788;DHT22;23627;53.302;-6.362;2023-08-07T18:34:53;17.90;99.90
37788;DHT22;23627;53.302;-6.362;2023-08-07T18:37:19;17.90;99.90
37788;DHT22;23627;53.302;-6.362;2023-08-07T18:40:01;17.90;99.90
37788;DHT22;23627;53.302;-6.362;2023-08-07T18:42:35;17.90;99.90
37788;DHT22;23627;53.302;-6.362;2023-08-07T18:45:04;17.80;99.90
37788;DHT22;23627;53.302;-6.362;2023-08-07T18:47:31;17.70;99.90
37788;DHT22;23627;53.302;-6.362;2023-08-07T18:49:56;17.70;99.90
37788;DHT22;23627;53.302;-6.362;2023-08-07T18:52:22;17.60;99.90
37788;DHT22;23627;53.302;-6.362;2023-08-07T18:58:10;17.60;99.90
37788;DHT22;23627;53.302;-6.362;2023-08-07T19:00:36;17.50;99.90
37788;DHT22;23627;53.302;-6.362;2023-08-07T19:03:02;17.40;99.90
37788;DHT22;23627;53.302;-6.362;2023-08-07T19:05:28;17.50;99.90
37788;DHT22;23627;53.302;-6.362;2023-08-07T19:07:56;17.40;99.90
37788;DHT22;23627;53.302;-6.362;2023-08-07T19:10:21;17.40;99.90
37788;DHT22;23627;53.302;-6.362;2023-08-07T19:12:54;17.30;99.90
37788;DHT22;23627;53.302;-6.362;2023-08-07T19:15:29;17.30;99.90
37788;DHT22;23627;53.302;-6.362;2023-08-07T19:18:16;17.30;99.90
37788;DHT22;23627;53.302;-6.362;2023-08-07T19:20:43;17.30;99.90
37788;DHT22;23627;53.302;-6.362;2023-08-07T19:23:09;17.20;99.90
37788;DHT22;23627;53.302;-6.362;2023-08-07T19:25:37;17.20;99.90
37788;DHT22;23627;53.302;-6.362;2023-08-07T19:28:03;17.10;99.90
37788;DHT22;23627;53.302;-6.362;2023-08-07T19:30:29;17.10;99.90
37788;DHT22;23627;53.302;-6.362;2023-08-07T19:32:55;17.00;99.90
37788;DHT22;23627;53.302;-6.362;2023-08-07T19:35:22;16.90;99.90
37788;DHT22;23627;53.302;-6.362;2023-08-07T19:37:50;16.90;99.90
37788;DHT22;23627;53.302;-6.362;2023-08-07T19:40:16;16.90;99.90
37788;DHT22;23627;53.302;-6.362;2023-08-07T19:42:55;16.90;99.90
37788;DHT22;23627;53.302;-6.362;2023-08-07T19:55:59;16.60;99.90
37788;DHT22;23627;53.302;-6.362;2023-08-07T19:58:26;16.60;99.90
37788;DHT22;23627;53.302;-6.362;2023-08-07T20:00:52;16.60;99.90
37788;DHT22;23627;53.302;-6.362;2023-08-07T20:03:17;16.50;99.90
37788;DHT22;23627;53.302;-6.362;2023-08-07T20:05:43;16.40;99.90
37788;DHT22;23627;53.302;-6.362;2023-08-07T20:08:09;16.30;99.90
37788;DHT22;23627;53.302;-6.362;2023-08-07T20:10:35;16.30;99.90
37788;DHT22;23627;53.302;-6.362;2023-08-07T20:13:01;16.20;99.90
37788;DHT22;23627;53.302;-6.362;2023-08-07T20:15:27;16.20;99.90
37788;DHT22;23627;53.302;-6.362;2023-08-07T20:17:53;16.00;99.90
37788;DHT22;23627;53.302;-6.362;2023-08-07T20:20:19;15.90;99.90
37788;DHT22;23627;53.302;-6.362;2023-08-07T20:22:50;15.90;99.90
37788;DHT22;23627;53.302;-6.362;2023-08-07T20:25:16;15.90;99.90
37788;DHT22;23627;53.302;-6.362;2023-08-07T20:27:51;15.90;99.90
37788;DHT22;23627;53.302;-6.362;2023-08-07T20:30:16;15.90;99.90
37788;DHT22;23627;53.302;-6.362;2023-08-07T20:32:42;15.80;99.90
37788;DHT22;23627;53.302;-6.362;2023-08-07T20:35:08;15.80;99.90